createdAt,value
2022-12-03T00:01:57.233Z,101240.50
2022-12-03T00:04:27.753Z,101237.69
2022-12-03T00:06:58.266Z,101235.56
2022-12-03T00:09:28.820Z,101242.38
2022-12-03T00:12:01.804Z,101240.41
2022-12-03T00:14:32.466Z,101239.06
2022-12-03T00:17:02.977Z,101235.81
2022-12-03T00:19:33.846Z,101230.22
2022-12-03T00:22:04.489Z,101227.72
2022-12-03T00:24:34.981Z,101228.09
2022-12-03T00:27:06.624Z,101228.88
2022-12-03T00:29:36.711Z,101223.63
2022-12-03T00:32:07.787Z,101215.56
2022-12-03T00:34:38.143Z,101219.53
2022-12-03T00:37:08.571Z,101218.66
2022-12-03T00:39:39.298Z,101210.59
2022-12-03T00:42:11.249Z,101224.19
2022-12-03T00:44:41.232Z,101219.72
2022-12-03T00:47:12.352Z,101228.50
2022-12-03T00:49:42.821Z,101229.31
2022-12-03T00:52:12.807Z,101232.13
2022-12-03T00:54:43.532Z,101227.72
2022-12-03T00:57:16.234Z,101240.09
2022-12-03T00:59:46.906Z,101231.22
2022-12-03T01:02:17.698Z,101236.34
2022-12-03T01:04:48.685Z,101236.72
2022-12-03T01:07:19.414Z,101235.06
2022-12-03T01:09:49.965Z,101236.59
2022-12-03T01:12:22.679Z,101234.09
2022-12-03T01:14:53.609Z,101234.00
2022-12-03T01:17:24.051Z,101226.59
2022-12-03T01:19:54.859Z,101224.03
2022-12-03T01:22:25.172Z,101220.28
2022-12-03T01:24:55.519Z,101215.34
2022-12-03T01:27:28.424Z,101215.69
2022-12-03T01:29:58.493Z,101221.31
2022-12-03T01:32:27.046Z,101215.69
2022-12-03T01:34:58.878Z,101205.63
2022-12-03T01:37:30.828Z,101211.63
2022-12-03T01:40:00.937Z,101206.00
2022-12-03T01:42:38.221Z,101200.38
2022-12-03T01:45:14.902Z,101198.38
2022-12-03T01:47:45.428Z,101200.38
2022-12-03T01:50:26.118Z,101196.41
2022-12-03T01:53:00.532Z,101193.59
2022-12-03T01:55:31.733Z,101192.41
2022-12-03T01:58:04.854Z,101193.25
2022-12-03T02:00:35.677Z,101188.78
2022-12-03T02:03:15.253Z,101185.97
2022-12-03T02:05:46.119Z,101185.50
2022-12-03T02:08:33.324Z,101193.13
2022-12-03T02:11:11.635Z,101199.91
2022-12-03T02:13:44.432Z,101193.44
2022-12-03T02:16:14.461Z,101193.00
2022-12-03T02:18:46.044Z,101193.00
2022-12-03T02:21:29.602Z,101193.81
2022-12-03T02:24:10.391Z,101190.53
2022-12-03T02:26:42.937Z,101186.06
2022-12-03T02:29:13.002Z,101187.22
2022-12-03T02:31:44.358Z,101192.84
2022-12-03T02:34:39.007Z,101192.72
2022-12-03T02:37:14.472Z,101195.53
2022-12-03T02:39:53.099Z,101188.28
2022-12-03T02:42:36.010Z,101185.03
2022-12-03T02:45:13.277Z,101176.94
2022-12-03T02:47:48.168Z,101178.09
2022-12-03T02:50:23.246Z,101187.72
2022-12-03T02:52:57.175Z,101187.22
2022-12-03T02:55:34.924Z,101191.69
2022-12-03T02:58:09.374Z,101188.03
2022-12-03T03:00:41.514Z,101185.59
2022-12-03T03:03:13.061Z,101188.88
2022-12-03T03:05:45.832Z,101177.97
2022-12-03T03:08:16.975Z,101189.19
2022-12-03T03:10:50.184Z,101192.84
2022-12-03T03:13:24.382Z,101194.00
2022-12-03T03:15:54.290Z,101197.97
2022-12-03T03:18:25.216Z,101192.38
2022-12-03T03:20:56.393Z,101181.50
2022-12-03T03:23:28.499Z,101189.06
2022-12-03T03:26:02.863Z,101186.63
2022-12-03T03:28:37.213Z,101183.81
2022-12-03T03:31:10.623Z,101195.03
2022-12-03T03:33:43.865Z,101194.22
2022-12-03T03:36:16.373Z,101200.16
2022-12-03T03:38:46.966Z,101204.13
2022-12-03T03:41:18.943Z,101204.97
2022-12-03T03:43:52.522Z,101208.09
2022-12-03T03:46:23.267Z,101206.44
2022-12-03T03:48:55.122Z,101210.41
2022-12-03T03:51:25.881Z,101212.41
2022-12-03T03:53:56.422Z,101210.28
2022-12-03T03:56:27.595Z,101200.59
2022-12-03T03:59:00.492Z,101197.66
2022-12-03T04:01:33.429Z,101203.13
2022-12-03T04:04:04.285Z,101197.84
2022-12-03T04:06:34.775Z,101203.00
2022-12-03T04:09:05.293Z,101207.78
2022-12-03T04:11:52.184Z,101205.34
2022-12-03T04:14:25.003Z,101216.06
2022-12-03T04:16:55.643Z,101222.50
2022-12-03T04:19:25.769Z,101224.13
2022-12-03T04:22:12.736Z,101218.53
2022-12-03T04:24:43.454Z,101226.13
2022-12-03T04:27:30.494Z,101218.88
2022-12-03T04:30:02.178Z,101222.84
2022-12-03T04:32:49.141Z,101222.84
2022-12-03T04:35:35.996Z,101234.91
2022-12-03T04:38:06.219Z,101236.88
2022-12-03T04:40:53.164Z,101238.53
2022-12-03T04:43:23.325Z,101241.69
2022-12-03T04:45:55.237Z,101246.44
2022-12-03T04:48:26.098Z,101247.59
2022-12-03T04:50:56.678Z,101247.13
2022-12-03T04:53:26.874Z,101242.34
2022-12-03T04:55:57.025Z,101251.94
2022-12-03T04:58:27.875Z,101254.72
2022-12-03T05:01:00.504Z,101256.38
2022-12-03T05:03:31.176Z,101252.41
2022-12-03T05:06:01.548Z,101251.75
2022-12-03T05:08:31.503Z,101265.91
2022-12-03T05:11:02.302Z,101273.59
2022-12-03T05:13:32.675Z,101277.72
2022-12-03T05:16:05.520Z,101272.25
2022-12-03T05:18:36.009Z,101267.13
2022-12-03T05:21:07.445Z,101281.59
2022-12-03T05:23:37.372Z,101281.28
2022-12-03T05:26:07.808Z,101277.78
2022-12-03T05:28:38.213Z,101278.25
2022-12-03T05:31:10.529Z,101277.44
2022-12-03T05:33:44.460Z,101277.44
2022-12-03T05:36:15.379Z,101279.09
2022-12-03T05:38:45.922Z,101275.13
2022-12-03T05:41:32.944Z,101272.78
2022-12-03T05:44:03.444Z,101276.44
2022-12-03T05:46:35.693Z,101277.72
2022-12-03T05:49:06.387Z,101275.88
2022-12-03T05:51:36.918Z,101280.78
2022-12-03T05:54:07.736Z,101289.34
2022-12-03T05:56:37.840Z,101287.50
2022-12-03T05:59:08.907Z,101292.91
2022-12-03T06:01:40.994Z,101302.16
2022-12-03T06:04:11.225Z,101301.09
2022-12-03T06:06:41.790Z,101296.78
2022-12-03T06:09:12.510Z,101302.19
2022-12-03T06:11:42.587Z,101306.41
2022-12-03T06:14:13.404Z,101309.03
2022-12-03T06:16:45.931Z,101315.84
2022-12-03T06:19:16.307Z,101299.97
2022-12-03T06:21:48.153Z,101309.34
2022-12-03T06:24:18.923Z,101298.13
2022-12-03T06:26:49.797Z,101304.69
2022-12-03T06:29:20.443Z,101303.63
2022-12-03T06:31:53.026Z,101306.94
2022-12-03T06:34:23.551Z,101306.00
2022-12-03T06:36:53.199Z,101307.63
2022-12-03T06:39:23.470Z,101308.81
2022-12-03T06:41:54.165Z,101316.78
2022-12-03T06:44:24.333Z,101313.16
2022-12-03T06:46:57.017Z,101310.56
2022-12-03T06:49:27.151Z,101308.53
2022-12-03T06:51:57.848Z,101303.91
2022-12-03T06:54:28.268Z,101309.47
2022-12-03T06:56:58.913Z,101300.22
2022-12-03T06:59:29.176Z,101314.38
2022-12-03T07:02:01.642Z,101309.22
2022-12-03T07:04:31.761Z,101307.66
2022-12-03T07:07:02.097Z,101307.97
2022-12-03T07:09:32.957Z,101313.09
2022-12-03T07:12:03.764Z,101310.50
2022-12-03T07:14:34.318Z,101303.66
2022-12-03T07:17:06.386Z,101296.59
2022-12-03T07:19:37.049Z,101295.13
2022-12-03T07:22:07.796Z,101294.59
2022-12-03T07:24:38.373Z,101284.41
2022-12-03T07:27:08.747Z,101282.75
2022-12-03T07:29:39.728Z,101281.41
2022-12-03T07:32:11.856Z,101273.53
2022-12-03T07:34:42.622Z,101277.88
2022-12-03T07:37:13.117Z,101273.25
2022-12-03T07:39:43.705Z,101273.84
2022-12-03T07:42:14.187Z,101281.28
2022-12-03T07:44:44.783Z,101268.19
2022-12-03T07:47:17.460Z,101253.03
2022-12-03T07:49:47.807Z,101248.00
2022-12-03T07:52:18.476Z,101239.31
2022-12-03T07:54:48.515Z,101238.69
2022-12-03T07:57:19.114Z,101236.88
2022-12-03T07:59:49.197Z,101235.41
2022-12-03T08:02:22.120Z,101234.31
2022-12-03T08:04:53.191Z,101237.25
2022-12-03T08:07:24.211Z,101221.56
2022-12-03T08:09:54.873Z,101223.59
2022-12-03T08:12:40.496Z,101222.00
2022-12-03T08:15:16.075Z,101211.03
2022-12-03T08:17:52.835Z,101204.53
2022-12-03T08:20:26.070Z,101210.22
2022-12-03T08:22:58.651Z,101212.19
2022-12-03T08:25:32.732Z,101211.25
2022-12-03T08:28:13.814Z,101206.53
2022-12-03T08:30:44.962Z,101198.50
2022-12-03T08:33:28.533Z,101191.94
2022-12-03T08:35:59.014Z,101190.25
2022-12-03T08:38:31.814Z,101186.78
2022-12-03T08:41:02.480Z,101180.69
2022-12-03T08:43:43.207Z,101181.22
2022-12-03T08:46:21.334Z,101180.66
2022-12-03T08:48:54.342Z,101176.84
2022-12-03T08:51:27.080Z,101174.97
2022-12-03T08:54:07.344Z,101177.25
2022-12-03T08:56:39.552Z,101174.53
2022-12-03T08:59:27.978Z,101168.19
2022-12-03T09:02:00.919Z,101162.59
2022-12-03T09:04:41.012Z,101154.16
2022-12-03T09:07:11.956Z,101158.34
2022-12-03T09:09:41.971Z,101150.25
2022-12-03T09:12:12.801Z,101149.09
2022-12-03T09:14:43.504Z,101147.13
2022-12-03T09:17:13.964Z,101146.72
2022-12-03T09:19:46.793Z,101139.44
2022-12-03T09:22:17.781Z,101121.56
2022-12-03T09:24:48.493Z,101117.88
2022-12-03T09:27:19.341Z,101119.13
2022-12-03T09:29:49.448Z,101115.84
2022-12-03T09:32:19.709Z,101111.41
2022-12-03T09:35:08.817Z,101110.16
2022-12-03T09:37:39.384Z,101111.81
2022-12-03T09:40:12.103Z,101110.97
2022-12-03T09:42:42.912Z,101100.03
2022-12-03T09:45:16.871Z,101103.28
2022-12-03T09:47:51.873Z,101094.34
2022-12-03T09:50:27.294Z,101092.31
2022-12-03T09:53:01.506Z,101078.47
2022-12-03T09:55:32.925Z,101079.69
2022-12-03T09:58:05.986Z,101080.50
2022-12-03T10:00:37.172Z,101080.88
2022-12-03T10:03:10.463Z,101081.66
2022-12-03T10:05:47.880Z,101080.78
2022-12-03T10:08:22.939Z,101075.88
2022-12-03T10:10:58.916Z,101081.50
2022-12-03T10:13:32.619Z,101082.66
2022-12-03T10:16:04.352Z,101073.59
2022-12-03T10:18:41.546Z,101077.16
2022-12-03T10:21:22.497Z,101073.88
2022-12-03T10:23:55.422Z,101066.91
2022-12-03T10:26:42.477Z,101071.28
2022-12-03T10:29:17.388Z,101063.50
2022-12-03T10:31:48.509Z,101061.78
2022-12-03T10:34:30.937Z,101059.75
2022-12-03T10:37:18.744Z,101055.16
2022-12-03T10:40:02.212Z,101050.66
2022-12-03T10:42:35.500Z,101048.16
2022-12-03T10:45:26.725Z,101038.81
2022-12-03T10:48:13.542Z,101036.75
2022-12-03T10:50:53.551Z,101036.72
2022-12-03T10:53:31.888Z,101037.09
2022-12-03T10:56:06.313Z,101028.13
2022-12-03T10:58:40.307Z,101030.09
2022-12-03T11:01:20.732Z,101019.94
2022-12-03T11:03:52.057Z,101014.59
2022-12-03T11:06:24.884Z,101018.19
2022-12-03T11:09:00.440Z,101010.03
2022-12-03T11:11:35.065Z,101012.84
2022-12-03T11:14:08.609Z,101016.03
2022-12-03T11:17:12.015Z,101008.72
2022-12-03T11:19:50.514Z,101007.03
2022-12-03T11:22:43.585Z,100997.66
2022-12-03T11:25:52.738Z,101011.66
2022-12-03T11:28:56.333Z,101013.63
2022-12-03T11:31:43.192Z,101015.59
2022-12-03T11:34:50.501Z,101020.78
2022-12-03T11:37:30.083Z,101018.31
2022-12-03T11:40:39.667Z,101035.22
2022-12-03T11:43:13.793Z,101031.16
2022-12-03T11:45:43.911Z,101031.53
2022-12-03T11:48:16.936Z,101030.28
2022-12-03T11:50:53.705Z,101033.09
2022-12-03T11:53:27.748Z,101027.44
2022-12-03T11:56:09.372Z,101033.50
2022-12-03T11:58:45.710Z,101038.38
2022-12-03T12:01:19.391Z,101033.09
2022-12-03T12:03:52.082Z,101031.47
2022-12-03T12:06:23.617Z,101026.56
2022-12-03T12:09:04.292Z,101036.25
2022-12-03T12:11:37.880Z,101024.06
2022-12-03T12:14:12.896Z,101039.78
2022-12-03T12:16:55.472Z,101038.56
2022-12-03T12:19:40.251Z,101037.69
2022-12-03T12:22:33.050Z,101035.63
2022-12-03T12:25:05.583Z,101029.94
2022-12-03T12:27:45.642Z,101028.31
2022-12-03T12:30:22.327Z,101027.44
2022-12-03T12:32:56.463Z,101024.16
2022-12-03T12:35:28.556Z,101023.72
2022-12-03T12:38:04.767Z,101024.94
2022-12-03T12:40:39.356Z,101024.50
2022-12-03T12:43:24.521Z,101034.56
2022-12-03T12:45:59.443Z,101036.13
2022-12-03T12:48:36.416Z,101028.03
2022-12-03T12:51:15.410Z,101030.88
2022-12-03T12:53:45.355Z,101032.81
2022-12-03T12:56:25.943Z,101030.38
2022-12-03T12:58:57.243Z,101038.81
2022-12-03T13:01:33.557Z,101033.16
2022-12-03T13:04:03.938Z,101040.75
2022-12-03T13:06:36.598Z,101041.50
2022-12-03T13:09:11.694Z,101045.47
2022-12-03T13:11:46.186Z,101041.81
2022-12-03T13:14:22.881Z,101046.22
2022-12-03T13:16:59.438Z,101044.59
2022-12-03T13:19:32.703Z,101054.22
2022-12-03T13:22:13.216Z,101052.13
2022-12-03T13:24:48.138Z,101049.63
2022-12-03T13:27:29.920Z,101051.19
2022-12-03T13:30:04.347Z,101051.97
2022-12-03T13:32:39.949Z,101046.66
2022-12-03T13:35:36.183Z,101051.91
2022-12-03T13:38:15.992Z,101049.00
2022-12-03T13:40:46.019Z,101059.50
2022-12-03T13:43:22.014Z,101063.50
2022-12-03T13:45:55.634Z,101061.88
2022-12-03T13:48:33.172Z,101057.06
2022-12-03T13:51:21.521Z,101065.91
2022-12-03T13:53:52.054Z,101063.00
2022-12-03T13:56:30.092Z,101067.47
2022-12-03T13:59:02.987Z,101068.22
2022-12-03T14:01:33.248Z,101068.22
2022-12-03T14:04:06.537Z,101067.03
2022-12-03T14:06:36.645Z,101066.66
2022-12-03T14:09:07.348Z,101075.94
2022-12-03T14:11:54.314Z,101081.22
2022-12-03T14:14:24.926Z,101073.56
2022-12-03T14:16:59.912Z,101081.66
2022-12-03T14:19:33.154Z,101082.50
2022-12-03T14:22:03.208Z,101084.47
2022-12-03T14:24:33.720Z,101085.31
2022-12-03T14:27:04.066Z,101084.47
2022-12-03T14:29:34.505Z,101094.97
2022-12-03T14:32:05.217Z,101084.88
2022-12-03T14:34:37.487Z,101099.72
2022-12-03T14:37:08.017Z,101092.78
2022-12-03T14:39:38.580Z,101090.63
2022-12-03T14:42:17.068Z,101098.56
2022-12-03T14:44:50.583Z,101089.56
2022-12-03T14:47:24.270Z,101104.09
2022-12-03T14:49:56.347Z,101102.06
2022-12-03T14:52:27.060Z,101094.44
2022-12-03T14:54:57.883Z,101094.44
2022-12-03T14:57:28.678Z,101095.22
2022-12-03T14:59:59.039Z,101094.34
2022-12-03T15:02:30.851Z,101096.75
2022-12-03T15:05:03.209Z,101099.03
2022-12-03T15:07:33.215Z,101100.91
2022-12-03T15:10:03.800Z,101103.66
2022-12-03T15:12:34.348Z,101106.88
2022-12-03T15:15:04.556Z,101114.88
2022-12-03T15:17:34.717Z,101121.25
2022-12-03T15:20:07.394Z,101119.63
2022-12-03T15:22:37.456Z,101118.81
2022-12-03T15:25:08.944Z,101123.63
2022-12-03T15:27:39.340Z,101128.47
2022-12-03T15:30:11.144Z,101130.03
2022-12-03T15:32:41.341Z,101131.59
2022-12-03T15:35:20.125Z,101136.78
2022-12-03T15:37:50.302Z,101135.53
2022-12-03T15:40:21.149Z,101144.81
2022-12-03T15:42:51.281Z,101146.81
2022-12-03T15:45:22.203Z,101150.81
2022-12-03T15:47:52.560Z,101156.47
2022-12-03T15:50:24.590Z,101162.47
2022-12-03T15:52:54.435Z,101156.84
2022-12-03T15:55:25.403Z,101154.41
2022-12-03T15:57:56.148Z,101162.03
2022-12-03T16:00:26.583Z,101152.75
2022-12-03T16:02:56.766Z,101161.56
2022-12-03T16:05:28.789Z,101161.56
2022-12-03T16:07:59.107Z,101164.78
2022-12-03T16:10:29.582Z,101168.78
2022-12-03T16:12:59.431Z,101172.78
2022-12-03T16:15:29.667Z,101178.44
2022-12-03T16:17:59.210Z,101186.09
2022-12-03T16:20:31.960Z,101176.00
2022-12-03T16:23:02.169Z,101174.34
2022-12-03T16:25:31.659Z,101172.69
2022-12-03T16:28:02.177Z,101175.03
2022-12-03T16:30:32.686Z,101179.50
2022-12-03T16:33:03.478Z,101184.34
2022-12-03T16:35:35.987Z,101176.22
2022-12-03T16:38:09.230Z,101170.97
2022-12-03T16:40:39.671Z,101181.78
2022-12-03T16:43:11.060Z,101181.78
2022-12-03T16:46:02.917Z,101197.91
2022-12-03T16:48:33.543Z,101182.56
2022-12-03T16:51:06.176Z,101188.19
2022-12-03T16:53:36.862Z,101193.00
2022-12-03T16:56:07.574Z,101189.38
2022-12-03T16:58:38.382Z,101186.09
2022-12-03T17:01:09.511Z,101192.94
2022-12-03T17:03:40.444Z,101197.75
2022-12-03T17:06:12.400Z,101200.94
2022-12-03T17:08:48.792Z,101198.50
2022-12-03T17:11:20.374Z,101198.84
2022-12-03T17:13:50.836Z,101207.28
2022-12-03T17:16:21.323Z,101214.16
2022-12-03T17:18:51.283Z,101206.03
2022-12-03T17:21:23.759Z,101212.06
2022-12-03T17:23:54.411Z,101214.41
2022-12-03T17:26:24.781Z,101214.41
2022-12-03T17:28:55.448Z,101212.78
2022-12-03T17:31:25.791Z,101214.78
2022-12-03T17:33:57.836Z,101207.50
2022-12-03T17:36:29.839Z,101209.50
2022-12-03T17:38:59.761Z,101212.69
2022-12-03T17:41:29.736Z,101212.25
2022-12-03T17:43:59.942Z,101214.25
2022-12-03T17:46:29.915Z,101207.34
2022-12-03T17:49:00.381Z,101210.50
2022-12-03T17:51:32.811Z,101223.81
2022-12-03T17:54:03.008Z,101214.50
2022-12-03T17:56:33.326Z,101216.91
2022-12-03T17:59:04.120Z,101215.63
2022-12-03T18:01:34.599Z,101210.34
2022-12-03T18:04:06.269Z,101215.16
2022-12-03T18:06:38.760Z,101226.00
2022-12-03T18:09:09.337Z,101221.53
2022-12-03T18:11:39.668Z,101218.25
2022-12-03T18:14:10.128Z,101222.25
2022-12-03T18:16:40.424Z,101223.44
2022-12-03T18:19:11.239Z,101218.53
2022-12-03T18:21:43.409Z,101224.53
2022-12-03T18:24:13.519Z,101221.25
2022-12-03T18:26:44.477Z,101220.00
2022-12-03T18:29:14.939Z,101214.72
2022-12-03T18:31:45.494Z,101220.69
2022-12-03T18:34:15.754Z,101221.06
2022-12-03T18:36:48.935Z,101227.88
2022-12-03T18:39:29.794Z,101223.78
2022-12-03T18:42:00.823Z,101223.31
2022-12-03T18:44:30.778Z,101226.50
2022-12-03T18:47:02.964Z,101224.03
2022-12-03T18:49:33.137Z,101220.41
2022-12-03T18:52:05.705Z,101222.44
2022-12-03T18:54:35.641Z,101225.59
2022-12-03T18:57:05.859Z,101218.31
2022-12-03T18:59:36.347Z,101221.50
2022-12-03T19:02:07.280Z,101222.69
2022-12-03T19:04:36.987Z,101227.84
2022-12-03T19:07:09.027Z,101226.22
2022-12-03T19:09:39.486Z,101229.78
2022-12-03T19:12:14.782Z,101232.59
2022-12-03T19:14:45.510Z,101232.13
2022-12-03T19:17:15.391Z,101240.13
2022-12-03T19:19:45.484Z,101234.03
2022-12-03T19:22:18.335Z,101247.31
2022-12-03T19:24:48.855Z,101245.19
2022-12-03T19:27:19.630Z,101250.84
2022-12-03T19:29:52.247Z,101258.47
2022-12-03T19:32:22.956Z,101260.84
2022-12-03T19:34:53.692Z,101247.94
2022-12-03T19:37:25.528Z,101259.19
2022-12-03T19:39:56.575Z,101252.28
2022-12-03T19:42:27.360Z,101252.28
2022-12-03T19:44:57.881Z,101250.66
2022-12-03T19:47:28.255Z,101253.00
2022-12-03T19:49:58.719Z,101251.34
2022-12-03T19:52:31.125Z,101253.38
2022-12-03T19:55:02.492Z,101259.34
2022-12-03T19:57:32.930Z,101255.72
2022-12-03T20:00:02.812Z,101256.91
2022-12-03T20:02:32.792Z,101249.63
2022-12-03T20:05:03.455Z,101260.41
2022-12-03T20:07:35.393Z,101248.34
2022-12-03T20:10:06.313Z,101251.50
2022-12-03T20:12:37.115Z,101247.41
2022-12-03T20:15:08.901Z,101248.59
2022-12-03T20:17:39.440Z,101250.59
2022-12-03T20:20:11.653Z,101251.78
2022-12-03T20:22:44.163Z,101243.69
2022-12-03T20:25:14.402Z,101239.25
2022-12-03T20:27:44.921Z,101243.25
2022-12-03T20:30:16.092Z,101240.75
2022-12-03T20:32:46.896Z,101239.50
2022-12-03T20:35:17.392Z,101233.06
2022-12-03T20:37:49.111Z,101237.84
2022-12-03T20:40:19.055Z,101237.00
2022-12-03T20:42:50.764Z,101236.16
2022-12-03T20:45:21.250Z,101230.91
2022-12-03T20:47:51.250Z,101234.91
2022-12-03T20:50:21.926Z,101229.63
2022-12-03T20:53:22.544Z,101231.63
2022-12-03T20:55:43.813Z,101221.09
2022-12-03T20:58:14.265Z,101227.91
2022-12-03T21:00:44.787Z,101217.81
2022-12-03T21:03:15.233Z,101210.53
2022-12-03T21:05:46.327Z,101213.72
2022-12-03T21:08:33.991Z,101213.72
2022-12-03T21:11:11.437Z,101210.44
2022-12-03T21:13:44.161Z,101215.25
2022-12-03T21:16:17.236Z,101217.25
2022-12-03T21:18:48.293Z,101212.78
2022-12-03T21:21:21.857Z,101206.34
2022-12-03T21:23:54.582Z,101208.34
2022-12-03T21:26:25.718Z,101210.69
2022-12-03T21:28:57.378Z,101211.53
2022-12-03T21:31:31.849Z,101206.69
2022-12-03T21:34:03.394Z,101210.34
2022-12-03T21:36:34.446Z,101199.09
2022-12-03T21:39:08.459Z,101201.91
2022-12-03T21:41:38.465Z,101204.72
2022-12-03T21:44:08.493Z,101200.25
2022-12-03T21:47:10.360Z,101195.44
2022-12-03T21:49:28.979Z,101193.00
2022-12-03T21:51:58.933Z,101195.44
2022-12-03T21:54:31.347Z,101192.16
2022-12-03T21:57:01.811Z,101192.16
2022-12-03T21:59:32.208Z,101185.72
2022-12-03T22:02:02.894Z,101194.97
2022-12-03T22:04:33.117Z,101195.81
2022-12-03T22:07:03.683Z,101189.34
2022-12-03T22:09:36.560Z,101199.44
2022-12-03T22:12:08.551Z,101185.72
2022-12-03T22:14:39.072Z,101190.53
2022-12-03T22:17:09.208Z,101184.09
2022-12-03T22:19:40.145Z,101190.53
2022-12-03T22:22:10.535Z,101189.72
2022-12-03T22:24:43.316Z,101188.91
2022-12-03T22:27:13.483Z,101184.44
2022-12-03T22:29:43.473Z,101188.44
2022-12-03T22:32:14.033Z,101194.88
2022-12-03T22:34:45.579Z,101181.16
2022-12-03T22:37:15.795Z,101196.88
2022-12-03T22:39:47.842Z,101187.97
2022-12-03T22:42:18.454Z,101189.16
2022-12-03T22:44:48.594Z,101191.16
2022-12-03T22:47:19.223Z,101195.16
2022-12-03T22:49:49.682Z,101189.03
2022-12-03T22:52:19.657Z,101189.03
2022-12-03T22:54:52.074Z,101183.41
2022-12-03T22:57:22.731Z,101191.41
2022-12-03T22:59:53.395Z,101190.59
2022-12-03T23:02:24.358Z,101192.56
2022-12-03T23:04:58.111Z,101194.56
2022-12-03T23:07:28.469Z,101189.31
2022-12-03T23:10:00.889Z,101188.47
2022-12-03T23:12:31.322Z,101187.22
2022-12-03T23:15:01.786Z,101186.75
2022-12-03T23:17:32.413Z,101187.09
2022-12-03T23:20:04.003Z,101182.66
2022-12-03T23:22:34.485Z,101188.63
2022-12-03T23:25:08.183Z,101189.81
2022-12-03T23:27:38.638Z,101191.31
2022-12-03T23:30:11.433Z,101197.31
2022-12-03T23:32:42.387Z,101186.06
2022-12-03T23:35:14.759Z,101185.25
2022-12-03T23:37:46.830Z,101185.59
2022-12-03T23:40:20.359Z,101191.59
2022-12-03T23:42:50.797Z,101199.19
2022-12-03T23:45:21.356Z,101199.94
2022-12-03T23:47:57.887Z,101197.47
2022-12-03T23:50:28.982Z,101199.84
2022-12-03T23:52:58.995Z,101200.16
2022-12-03T23:55:31.556Z,101201.34
2022-12-03T23:58:02.206Z,101197.72
